Time;durP1;ratioP1;P1;durP2;ratioP2;P2;SDS_P1;SDS_P2;PMS_P1;PMS_P2;Temp;Humidity;BMP_temperature;BMP_pressure;BME280_temperature;BME280_humidity;BME280_pressure;Samples;Min_cycle;Max_cycle;Signal;HPM_P1;HPM_P2
2021/05/29 00:01:12;;;;;;;7.43;4.28;;;19.00;99.90;;;;;;5075887;28;20202;-71
2021/05/29 00:03:39;;;;;;;5.55;3.92;;;19.00;99.90;;;;;;5075593;28;20197;-71
2021/05/29 00:06:06;;;;;;;4.32;3.92;;;18.90;99.90;;;;;;5075154;28;20267;-71
2021/05/29 00:08:33;;;;;;;5.15;3.60;;;18.90;99.90;;;;;;5075045;28;21118;-71
2021/05/29 00:11:01;;;;;;;3.95;3.65;;;18.90;99.90;;;;;;5075212;28;20202;-71
2021/05/29 00:13:29;;;;;;;6.55;3.95;;;18.80;99.90;;;;;;5074974;28;20198;-71
2021/05/29 00:15:56;;;;;;;4.72;3.50;;;18.70;99.90;;;;;;5074845;28;20759;-71
2021/05/29 00:18:24;;;;;;;4.80;3.47;;;18.70;99.90;;;;;;5075010;28;20206;-71
2021/05/29 00:20:53;;;;;;;4.18;3.78;;;18.70;99.90;;;;;;5074783;28;20256;-72
2021/05/29 00:23:19;;;;;;;4.88;3.33;;;18.70;99.90;;;;;;5074810;28;20198;-71
2021/05/29 00:25:46;;;;;;;5.22;3.88;;;18.60;99.90;;;;;;5074670;28;20221;-71
2021/05/29 00:28:14;;;;;;;5.70;3.38;;;18.50;99.90;;;;;;5074977;28;20202;-71
2021/05/29 00:30:41;;;;;;;4.45;4.05;;;18.50;99.90;;;;;;5075116;28;20359;-71
2021/05/29 00:33:07;;;;;;;5.32;4.55;;;18.40;99.90;;;;;;5074775;28;20198;-71
2021/05/29 00:35:34;;;;;;;5.13;4.13;;;18.40;99.90;;;;;;5074618;28;20268;-71
2021/05/29 00:38:02;;;;;;;6.38;4.38;;;18.40;99.90;;;;;;5074700;28;20205;-71
2021/05/29 00:40:29;;;;;;;3.78;3.42;;;18.40;99.90;;;;;;5074675;28;20230;-71
2021/05/29 00:42:55;;;;;;;3.72;3.40;;;18.40;99.90;;;;;;5074510;28;20198;-71
2021/05/29 00:45:22;;;;;;;8.98;4.07;;;18.40;99.90;;;;;;5074470;28;20198;-71
2021/05/29 00:47:48;;;;;;;7.80;3.30;;;18.30;99.90;;;;;;5074380;28;20205;-71
2021/05/29 00:50:16;;;;;;;4.85;3.58;;;18.30;99.90;;;;;;5074448;28;20202;-71
2021/05/29 00:52:43;;;;;;;4.40;4.00;;;18.30;99.90;;;;;;5074542;28;20666;-71
2021/05/29 00:55:13;;;;;;;5.35;3.95;;;18.30;99.90;;;;;;5074365;28;20279;-71
2021/05/29 00:57:41;;;;;;;4.40;3.85;;;18.30;99.90;;;;;;5074362;28;20259;-71
2021/05/29 01:00:10;;;;;;;7.78;5.30;;;18.20;99.90;;;;;;5073398;28;20283;-71
2021/05/29 01:02:38;;;;;;;4.07;3.67;;;18.10;99.90;;;;;;5073988;28;20199;-72
2021/05/29 01:05:08;;;;;;;5.60;4.18;;;18.10;99.90;;;;;;5074058;28;20662;-72
2021/05/29 01:07:35;;;;;;;4.70;4.20;;;18.10;99.90;;;;;;5073808;28;20670;-72
2021/05/29 01:10:03;;;;;;;5.95;3.45;;;18.10;99.90;;;;;;5074173;28;20255;-72
2021/05/29 01:12:31;;;;;;;5.07;3.78;;;18.00;99.90;;;;;;5074014;28;20293;-72
2021/05/29 01:14:59;;;;;;;5.60;3.35;;;18.00;99.90;;;;;;5073841;28;20666;-73
2021/05/29 01:17:28;;;;;;;4.30;3.63;;;18.00;99.90;;;;;;5074227;28;20212;-73
2021/05/29 01:19:55;;;;;;;7.47;4.93;;;17.90;99.90;;;;;;5073989;28;20280;-73
2021/05/29 01:22:43;;;;;;;5.72;4.03;;;17.90;99.90;;;;;;5073944;28;20272;-73
2021/05/29 01:25:16;;;;;;;7.30;4.10;;;17.90;99.90;;;;;;5073557;28;20213;-73
2021/05/29 01:27:44;;;;;;;5.53;4.32;;;18.00;99.90;;;;;;5074000;28;20622;-73
2021/05/29 01:30:12;;;;;;;5.15;3.47;;;18.00;99.90;;;;;;5074065;28;20202;-72
2021/05/29 01:32:38;;;;;;;5.13;4.15;;;18.00;99.90;;;;;;5073607;28;20225;-72
2021/05/29 01:35:08;;;;;;;4.82;3.25;;;17.90;99.90;;;;;;5073594;28;20206;-74
2021/05/29 01:37:37;;;;;;;5.00;3.80;;;17.90;99.90;;;;;;5073561;28;20206;-72
2021/05/29 01:40:06;;;;;;;5.47;3.65;;;17.90;99.90;;;;;;5073292;28;20230;-74
2021/05/29 01:42:35;;;;;;;5.57;3.78;;;17.90;99.90;;;;;;5073569;28;20573;-71
2021/05/29 01:45:06;;;;;;;5.63;3.38;;;17.90;99.90;;;;;;5073275;28;20651;-71
2021/05/29 01:47:34;;;;;;;5.57;3.45;;;17.90;99.90;;;;;;5073294;28;20252;-72
2021/05/29 01:50:03;;;;;;;5.63;3.53;;;17.90;99.90;;;;;;5073427;28;20206;-72
2021/05/29 01:52:50;;;;;;;4.95;3.47;;;18.00;99.90;;;;;;5073064;28;20202;-71
2021/05/29 01:55:20;;;;;;;6.90;3.40;;;17.90;99.90;;;;;;5073517;28;20202;-74
2021/05/29 01:57:46;;;;;;;3.90;3.38;;;17.90;99.90;;;;;;5073474;28;20251;-75
2021/05/29 02:00:14;;;;;;;6.72;3.30;;;17.90;99.90;;;;;;5073225;28;20234;-72
2021/05/29 02:02:41;;;;;;;6.97;2.95;;;17.80;99.90;;;;;;5073030;28;20202;-72
2021/05/29 02:05:14;;;;;;;4.97;3.20;;;17.80;99.90;;;;;;5072871;28;20229;-72
2021/05/29 02:07:41;;;;;;;7.63;4.18;;;17.90;99.90;;;;;;5073170;28;20206;-74
2021/05/29 02:10:10;;;;;;;3.72;3.42;;;17.90;99.90;;;;;;5072985;28;20259;-74
2021/05/29 02:12:39;;;;;;;5.97;3.63;;;17.80;99.90;;;;;;5072866;28;20202;-73
2021/05/29 02:15:07;;;;;;;8.90;3.95;;;17.70;99.90;;;;;;5072768;28;20204;-73
2021/05/29 02:17:34;;;;;;;3.97;3.33;;;17.70;99.90;;;;;;5072651;28;20206;-73
2021/05/29 02:20:00;;;;;;;4.50;3.33;;;17.70;99.90;;;;;;5072728;28;20229;-73
2021/05/29 02:22:27;;;;;;;5.65;3.22;;;17.60;99.90;;;;;;5072772;28;20198;-72
2021/05/29 02:24:53;;;;;;;6.93;4.20;;;17.50;99.90;;;;;;5072425;28;20217;-72
2021/05/29 02:27:20;;;;;;;7.10;3.95;;;17.50;99.90;;;;;;5072409;28;20696;-73
2021/05/29 02:29:47;;;;;;;4.05;3.58;;;17.40;99.90;;;;;;5072687;28;20198;-73
2021/05/29 02:32:14;;;;;;;5.07;3.95;;;17.60;99.90;;;;;;5072327;28;20208;-73
2021/05/29 02:34:40;;;;;;;7.07;4.93;;;17.60;99.90;;;;;;5072318;28;20627;-71
2021/05/29 02:37:07;;;;;;;14.48;3.58;;;17.70;99.90;;;;;;5072288;28;20575;-72
2021/05/29 02:39:33;;;;;;;5.47;3.60;;;17.80;99.90;;;;;;5072354;28;20222;-73
2021/05/29 02:41:59;;;;;;;10.27;3.80;;;17.80;99.90;;;;;;5072337;28;20198;-73
2021/05/29 02:44:26;;;;;;;5.45;3.45;;;17.80;99.90;;;;;;5072211;28;20198;-73
2021/05/29 02:46:54;;;;;;;4.93;3.30;;;17.80;99.90;;;;;;5072095;28;20198;-73
2021/05/29 02:49:20;;;;;;;5.65;3.85;;;17.80;99.90;;;;;;5072713;28;20217;-73
2021/05/29 02:51:47;;;;;;;8.65;3.65;;;17.80;99.90;;;;;;5072472;28;20252;-71
2021/05/29 02:54:13;;;;;;;7.55;4.40;;;17.80;99.90;;;;;;5072011;28;20597;-71
2021/05/29 02:56:40;;;;;;;3.88;3.42;;;17.80;99.90;;;;;;5072213;28;20202;-73
2021/05/29 02:59:06;;;;;;;8.45;3.55;;;17.90;99.90;;;;;;5071899;28;20206;-73
2021/05/29 03:01:33;;;;;;;4.38;3.10;;;17.90;99.90;;;;;;5071891;28;20198;-73
2021/05/29 03:04:00;;;;;;;6.88;3.25;;;17.80;99.90;;;;;;5072012;28;20670;-73
2021/05/29 03:06:27;;;;;;;9.73;4.43;;;17.80;99.90;;;;;;5071827;28;20209;-73
2021/05/29 03:08:56;;;;;;;5.20;3.95;;;17.90;99.90;;;;;;5071917;28;20288;-74
2021/05/29 03:11:22;;;;;;;10.43;4.65;;;17.90;99.90;;;;;;5072215;28;20332;-74
2021/05/29 03:13:49;;;;;;;5.43;4.28;;;17.80;99.90;;;;;;5072015;28;20199;-74
2021/05/29 03:16:15;;;;;;;6.93;4.45;;;17.90;99.90;;;;;;5072028;28;20210;-74
2021/05/29 03:18:42;;;;;;;4.78;3.95;;;17.80;99.90;;;;;;5071935;28;20569;-74
2021/05/29 03:21:09;;;;;;;4.82;3.25;;;17.80;99.90;;;;;;5071772;28;20237;-74
2021/05/29 03:23:36;;;;;;;5.90;3.97;;;17.90;99.90;;;;;;5071381;28;20210;-74
2021/05/29 03:26:02;;;;;;;4.22;3.80;;;17.90;99.90;;;;;;5071491;28;20617;-73
2021/05/29 03:28:28;;;;;;;5.82;4.22;;;17.80;99.90;;;;;;5071586;28;20205;-74
2021/05/29 03:30:55;;;;;;;7.15;4.45;;;17.80;99.90;;;;;;5071881;28;20210;-74
2021/05/29 03:33:21;;;;;;;7.53;4.10;;;17.80;99.90;;;;;;5071945;28;20198;-74
2021/05/29 03:35:48;;;;;;;4.50;3.47;;;17.90;99.90;;;;;;5071707;28;20205;-74
2021/05/29 03:38:15;;;;;;;4.70;3.78;;;17.90;99.90;;;;;;5071616;28;20384;-74
2021/05/29 03:40:42;;;;;;;7.43;4.38;;;17.80;99.90;;;;;;5071367;28;20368;-73
2021/05/29 03:43:08;;;;;;;4.68;3.53;;;17.70;99.90;;;;;;5071326;28;20576;-74
2021/05/29 03:45:35;;;;;;;5.47;4.07;;;17.60;99.90;;;;;;5071678;28;20206;-74
2021/05/29 03:48:01;;;;;;;4.95;3.97;;;17.60;99.90;;;;;;5071699;28;20198;-74
2021/05/29 03:50:28;;;;;;;5.20;4.15;;;17.60;99.90;;;;;;5071479;28;20244;-74
2021/05/29 03:52:54;;;;;;;5.60;3.53;;;17.70;99.90;;;;;;5071683;28;20202;-73
2021/05/29 03:55:23;;;;;;;4.90;3.70;;;17.80;99.90;;;;;;5071590;28;20206;-74
2021/05/29 03:57:50;;;;;;;4.90;3.65;;;17.70;99.90;;;;;;5071423;28;20198;-73
2021/05/29 04:00:20;;;;;;;5.22;4.00;;;17.70;99.90;;;;;;5071354;28;20778;-74
2021/05/29 04:02:47;;;;;;;4.70;3.92;;;17.70;99.90;;;;;;5071274;28;20206;-74
2021/05/29 04:05:14;;;;;;;4.90;3.80;;;17.70;99.90;;;;;;5071353;28;20209;-74
2021/05/29 04:07:41;;;;;;;9.32;4.25;;;17.70;99.90;;;;;;5071259;28;20202;-74
2021/05/29 04:10:09;;;;;;;5.88;4.03;;;17.60;99.90;;;;;;5071139;28;20245;-74
2021/05/29 04:12:37;;;;;;;5.90;3.53;;;17.60;99.90;;;;;;5071434;28;20202;-74
2021/05/29 04:15:05;;;;;;;7.50;4.30;;;17.60;99.90;;;;;;5071123;28;20696;-74
2021/05/29 04:17:31;;;;;;;11.90;5.00;;;17.60;99.90;;;;;;5071236;28;20202;-75
2021/05/29 04:19:57;;;;;;;6.97;3.72;;;17.60;99.90;;;;;;5070981;28;20260;-74
2021/05/29 04:22:24;;;;;;;8.40;4.70;;;17.60;99.90;;;;;;5071320;28;20209;-74
2021/05/29 04:24:51;;;;;;;7.40;5.00;;;17.50;99.90;;;;;;5070974;28;20214;-73
2021/05/29 04:27:18;;;;;;;8.90;4.40;;;17.60;99.90;;;;;;5070982;28;20238;-73
2021/05/29 04:29:45;;;;;;;8.82;4.25;;;17.60;99.90;;;;;;5071166;28;20236;-73
2021/05/29 04:32:12;;;;;;;5.97;3.85;;;17.60;99.90;;;;;;5071023;28;20666;-73
2021/05/29 04:34:38;;;;;;;5.43;4.30;;;17.60;99.90;;;;;;5072702;28;20224;-74
2021/05/29 04:37:05;;;;;;;8.85;3.95;;;17.60;99.90;;;;;;5074527;28;20207;-74
2021/05/29 04:39:32;;;;;;;7.40;4.63;;;17.40;99.90;;;;;;5074473;28;20259;-73
2021/05/29 04:41:58;;;;;;;5.80;4.20;;;17.30;99.90;;;;;;5074744;28;20678;-74
2021/05/29 04:44:25;;;;;;;6.50;4.70;;;17.40;99.90;;;;;;5074890;28;20210;-73
2021/05/29 04:46:53;;;;;;;9.65;4.07;;;17.40;99.90;;;;;;5074488;28;20199;-73
2021/05/29 04:49:22;;;;;;;5.07;4.50;;;17.40;99.90;;;;;;5074341;28;20206;-73
2021/05/29 04:51:49;;;;;;;4.35;3.95;;;17.40;99.90;;;;;;5074335;28;20206;-74
2021/05/29 04:54:16;;;;;;;4.97;4.38;;;17.50;99.90;;;;;;5074486;28;20198;-74
2021/05/29 04:56:42;;;;;;;6.07;4.05;;;17.60;99.90;;;;;;5074214;28;20202;-74
2021/05/29 04:59:10;;;;;;;4.65;3.85;;;17.70;99.90;;;;;;5074252;28;20210;-74
2021/05/29 05:01:36;;;;;;;7.40;4.07;;;17.80;99.90;;;;;;5074370;28;20206;-73
2021/05/29 05:04:04;;;;;;;8.35;4.25;;;17.80;99.90;;;;;;5074261;28;20209;-74
2021/05/29 05:06:30;;;;;;;9.02;4.28;;;17.80;99.90;;;;;;5074122;28;20202;-74
2021/05/29 05:08:57;;;;;;;5.40;4.05;;;17.80;99.90;;;;;;5074559;28;20209;-74
2021/05/29 05:11:24;;;;;;;11.43;4.63;;;17.80;99.90;;;;;;5074187;28;20206;-74
2021/05/29 05:13:51;;;;;;;4.95;3.55;;;17.80;99.90;;;;;;5074110;28;20206;-74
2021/05/29 05:16:18;;;;;;;5.18;3.45;;;17.80;99.90;;;;;;5073876;28;20205;-72
2021/05/29 05:18:45;;;;;;;4.70;3.53;;;17.80;99.90;;;;;;5073804;28;20563;-74
2021/05/29 05:21:13;;;;;;;5.72;3.75;;;17.90;99.90;;;;;;5069395;28;20234;-74
2021/05/29 05:23:40;;;;;;;5.32;3.72;;;18.00;99.90;;;;;;5069148;28;20255;-73
2021/05/29 05:26:07;;;;;;;7.03;4.47;;;18.20;99.90;;;;;;5072887;28;20209;-74
2021/05/29 05:28:33;;;;;;;5.70;3.97;;;18.20;99.90;;;;;;5071381;28;20199;-74
2021/05/29 05:31:02;;;;;;;6.78;3.92;;;18.30;99.90;;;;;;5070621;28;20202;-74
2021/05/29 05:33:30;;;;;;;9.38;5.03;;;18.40;99.90;;;;;;5064196;28;20202;-74
2021/05/29 05:35:56;;;;;;;5.65;4.93;;;18.50;99.90;;;;;;5073839;28;20213;-74
2021/05/29 05:38:24;;;;;;;7.55;5.88;;;18.50;99.90;;;;;;5055836;28;20234;-73
2021/05/29 05:40:52;;;;;;;7.30;5.13;;;18.50;99.90;;;;;;5053415;28;21173;-74
2021/05/29 05:43:19;;;;;;;6.80;4.55;;;18.50;99.90;;;;;;5053477;28;20212;-73
2021/05/29 05:45:45;;;;;;;8.80;4.60;;;18.40;99.90;;;;;;5052961;28;20702;-73
2021/05/29 05:48:12;;;;;;;8.07;4.50;;;18.40;99.90;;;;;;5053228;28;20214;-73
2021/05/29 05:50:51;;;;;;;7.68;5.10;;;18.40;99.90;;;;;;5053508;28;20245;-73
2021/05/29 05:53:18;;;;;;;6.55;4.70;;;18.40;99.90;;;;;;5053040;28;20689;-73
2021/05/29 05:55:45;;;;;;;10.23;4.55;;;18.40;99.90;;;;;;5053563;28;20210;-73
2021/05/29 05:58:12;;;;;;;7.47;4.15;;;18.40;99.90;;;;;;5053048;28;20226;-73
2021/05/29 06:00:39;;;;;;;6.00;4.22;;;18.40;99.90;;;;;;5052817;28;20230;-73
2021/05/29 06:03:05;;;;;;;6.55;3.85;;;18.50;99.90;;;;;;5064675;28;20205;-73
2021/05/29 06:05:32;;;;;;;5.18;3.90;;;18.60;99.90;;;;;;5060349;28;20261;-73
2021/05/29 06:07:58;;;;;;;6.90;3.88;;;18.60;99.90;;;;;;5056480;28;20620;-73
2021/05/29 06:10:25;;;;;;;5.07;4.22;;;18.60;99.90;;;;;;5072913;28;20206;-75
2021/05/29 06:12:53;;;;;;;5.53;4.45;;;18.60;99.90;;;;;;5062906;28;20213;-74
2021/05/29 06:18:10;;;;;;;4.28;3.72;;;18.60;99.90;;;;;;5071270;28;20290;-73
2021/05/29 06:20:41;;;;;;;7.13;4.70;;;18.50;99.90;;;;;;5070273;28;20238;-75
2021/05/29 06:23:08;;;;;;;6.93;4.82;;;18.60;99.90;;;;;;5072592;28;20289;-74
2021/05/29 06:25:34;;;;;;;7.63;5.05;;;18.60;99.90;;;;;;5072333;28;20210;-74
2021/05/29 06:28:02;;;;;;;7.00;4.88;;;18.80;99.90;;;;;;5068981;28;20214;-73
2021/05/29 06:30:28;;;;;;;6.40;4.50;;;18.90;99.90;;;;;;5065081;28;20210;-78
2021/05/29 06:32:54;;;;;;;6.78;4.88;;;18.90;99.90;;;;;;5052214;28;20694;-75
2021/05/29 06:35:21;;;;;;;5.85;4.93;;;18.90;99.90;;;;;;5066966;28;20674;-74
2021/05/29 06:37:48;;;;;;;8.02;4.40;;;18.90;99.90;;;;;;5071910;28;20574;-75
2021/05/29 06:40:14;;;;;;;6.68;5.32;;;19.00;99.90;;;;;;5072232;28;20650;-76
2021/05/29 06:42:41;;;;;;;5.60;4.63;;;19.00;99.90;;;;;;5071594;28;20248;-73
2021/05/29 06:45:10;;;;;;;9.15;4.90;;;19.20;99.90;;;;;;5070320;28;20217;-73
2021/05/29 06:47:36;;;;;;;4.63;4.13;;;19.30;99.90;;;;;;5056624;28;20216;-73
2021/05/29 06:50:05;;;;;;;8.77;4.80;;;19.30;99.90;;;;;;5070031;28;20210;-72
2021/05/29 06:52:33;;;;;;;5.43;4.93;;;19.40;99.90;;;;;;5052245;28;20206;-73
2021/05/29 06:55:06;;;;;;;6.90;4.78;;;19.50;99.90;;;;;;5061588;28;20208;-73
2021/05/29 07:00:19;;;;;;;8.20;5.22;;;20.10;99.90;;;;;;5058623;28;20719;-74
2021/05/29 07:02:46;;;;;;;10.75;5.10;;;20.70;99.90;;;;;;5071889;28;20319;-72
2021/05/29 07:05:14;;;;;;;9.10;5.40;;;20.80;99.90;;;;;;5071760;28;20198;-72
2021/05/29 07:07:43;;;;;;;12.05;5.38;;;20.90;99.90;;;;;;5071742;28;20202;-69
2021/05/29 07:10:10;;;;;;;6.70;4.82;;;20.90;99.90;;;;;;5065695;28;20582;-73
2021/05/29 07:12:37;;;;;;;9.70;6.32;;;20.70;99.90;;;;;;5071565;28;20700;-73
2021/05/29 07:15:04;;;;;;;5.35;4.70;;;20.70;99.90;;;;;;5062909;28;20293;-72
2021/05/29 07:17:34;;;;;;;12.75;5.25;;;20.60;99.90;;;;;;5063078;28;20727;-75
2021/05/29 07:20:00;;;;;;;8.55;5.05;;;20.60;99.90;;;;;;5069634;28;20236;-75
2021/05/29 07:22:27;;;;;;;12.50;5.00;;;20.60;99.90;;;;;;5071625;28;20210;-76
2021/05/29 07:24:53;;;;;;;12.02;5.25;;;20.60;99.90;;;;;;5071654;28;20206;-73
2021/05/29 07:27:20;;;;;;;9.95;5.10;;;20.60;99.90;;;;;;5071484;28;20202;-74
2021/05/29 07:29:47;;;;;;;8.63;5.30;;;20.70;99.90;;;;;;5071572;28;20209;-71
2021/05/29 07:32:14;;;;;;;6.07;4.97;;;20.90;99.90;;;;;;5071350;28;20210;-75
2021/05/29 07:34:41;;;;;;;10.23;5.80;;;20.90;99.90;;;;;;5056829;28;20214;-76
2021/05/29 07:37:08;;;;;;;8.45;5.35;;;21.20;99.90;;;;;;5056917;28;20213;-72
2021/05/29 07:39:35;;;;;;;11.40;6.25;;;21.40;99.90;;;;;;5066693;28;20214;-74
2021/05/29 07:42:02;;;;;;;10.70;5.13;;;21.70;99.90;;;;;;5051692;28;20290;-76
2021/05/29 07:44:28;;;;;;;12.50;5.88;;;21.90;99.90;;;;;;5054235;28;20218;-72
2021/05/29 07:46:55;;;;;;;8.13;4.75;;;22.20;99.90;;;;;;5071057;28;20198;-77
2021/05/29 07:49:21;;;;;;;8.57;5.75;;;22.50;99.90;;;;;;5071663;28;20206;-74
2021/05/29 07:51:48;;;;;;;7.47;5.40;;;22.80;99.90;;;;;;5071291;28;20787;-78
2021/05/29 07:54:15;;;;;;;5.55;5.03;;;23.50;99.90;;;;;;5071287;28;20264;-77
2021/05/29 07:56:41;;;;;;;8.65;5.38;;;23.80;99.90;;;;;;5071399;28;20247;-79
2021/05/29 07:59:11;;;;;;;7.13;5.10;;;23.60;99.90;;;;;;5066366;28;20739;-72
2021/05/29 08:01:38;;;;;;;8.38;5.18;;;23.20;99.90;;;;;;5062732;28;20337;-73
2021/05/29 08:04:05;;;;;;;11.63;6.18;;;22.90;99.90;;;;;;5071682;28;20198;-77
2021/05/29 08:06:34;;;;;;;7.32;5.32;;;22.70;99.90;;;;;;5051518;28;20251;-78
2021/05/29 08:09:05;;;;;;;7.65;5.68;;;22.80;99.90;;;;;;5056441;28;20214;-78
2021/05/29 08:11:32;;;;;;;6.82;5.35;;;23.00;99.90;;;;;;5075013;28;20209;-75
2021/05/29 08:13:59;;;;;;;6.03;5.38;;;22.90;99.90;;;;;;5074889;28;20233;-76
2021/05/29 08:16:26;;;;;;;6.40;5.00;;;22.80;99.90;;;;;;5074103;28;20551;-77
2021/05/29 08:18:53;;;;;;;6.63;5.03;;;22.80;99.90;;;;;;5071626;28;20206;-79
2021/05/29 08:21:21;;;;;;;12.00;6.15;;;22.90;99.90;;;;;;5066114;28;20242;-76
2021/05/29 08:23:48;;;;;;;7.97;5.50;;;22.90;99.90;;;;;;5072409;28;20308;-79
2021/05/29 08:26:16;;;;;;;9.50;5.45;;;22.80;99.90;;;;;;5074861;28;20213;-75
2021/05/29 08:28:44;;;;;;;12.40;5.40;;;23.00;99.90;;;;;;5074688;28;20231;-72
2021/05/29 08:31:11;;;;;;;8.35;4.97;;;23.00;99.90;;;;;;5054923;28;20203;-78
2021/05/29 08:33:39;;;;;;;9.60;5.40;;;23.10;99.90;;;;;;5054827;28;20202;-75
2021/05/29 08:36:06;;;;;;;8.18;5.55;;;23.30;99.90;;;;;;5054806;28;20659;-75
2021/05/29 08:38:32;;;;;;;8.98;5.57;;;23.60;99.90;;;;;;5054496;28;20202;-75
2021/05/29 08:40:59;;;;;;;7.18;5.13;;;23.80;99.90;;;;;;5054272;28;20231;-75
2021/05/29 08:43:27;;;;;;;9.45;5.35;;;24.10;99.90;;;;;;5054710;28;20256;-75
2021/05/29 08:45:53;;;;;;;12.30;5.55;;;24.40;99.90;;;;;;5053981;28;20199;-78
2021/05/29 08:48:20;;;;;;;7.47;5.68;;;24.50;99.90;;;;;;5054505;28;20230;-76
2021/05/29 08:53:28;;;;;;;8.20;4.70;;;25.40;99.90;;;;;;5060646;28;20255;-75
2021/05/29 08:55:54;;;;;;;6.40;4.93;;;25.20;99.90;;;;;;5072461;28;20212;-75
2021/05/29 08:58:21;;;;;;;8.00;4.10;;;25.00;99.90;;;;;;5054288;28;20203;-75
2021/05/29 09:00:48;;;;;;;7.50;4.93;;;25.30;99.90;;;;;;5054032;28;20260;-74
2021/05/29 09:03:15;;;;;;;6.25;5.18;;;25.20;99.90;;;;;;5054129;28;20203;-78
2021/05/29 09:05:46;;;;;;;7.53;5.07;;;25.20;99.90;;;;;;5058299;28;20241;-76
2021/05/29 09:08:14;;;;;;;6.32;4.40;;;25.60;99.90;;;;;;5073865;28;20210;-74
2021/05/29 09:10:42;;;;;;;7.00;5.32;;;25.40;99.90;;;;;;5074461;28;20202;-73
2021/05/29 09:13:13;;;;;;;6.78;5.53;;;25.40;99.90;;;;;;5074226;28;20253;-76
2021/05/29 09:15:50;;;;;;;5.93;5.15;;;25.60;99.90;;;;;;5073705;28;20229;-75
2021/05/29 09:18:37;;;;;;;8.05;5.18;;;25.50;99.90;;;;;;5061564;28;20637;-76
2021/05/29 09:21:23;;;;;;;6.85;5.93;;;25.40;99.90;;;;;;5063728;28;20288;-76
2021/05/29 09:23:53;;;;;;;7.63;5.60;;;25.20;99.90;;;;;;5069357;28;20213;-76
2021/05/29 09:26:22;;;;;;;7.85;5.75;;;25.30;99.90;;;;;;5053550;28;20633;-75
2021/05/29 09:28:49;;;;;;;7.75;5.55;;;25.40;99.90;;;;;;5053328;28;20206;-74
2021/05/29 09:31:17;;;;;;;6.63;4.93;;;25.20;99.90;;;;;;5064414;28;20214;-75
2021/05/29 09:33:45;;;;;;;7.97;5.07;;;25.00;99.90;;;;;;5073657;28;20198;-75
2021/05/29 09:36:14;;;;;;;7.32;5.05;;;24.50;99.90;;;;;;5073707;28;20571;-72
2021/05/29 09:38:42;;;;;;;6.50;5.22;;;24.30;99.90;;;;;;5073797;28;20201;-76
2021/05/29 09:41:19;;;;;;;5.07;4.35;;;24.10;99.90;;;;;;5062834;28;20235;-75
2021/05/29 09:43:54;;;;;;;10.45;5.07;;;24.10;99.90;;;;;;5053182;28;20202;-73
2021/05/29 09:46:22;;;;;;;5.85;4.30;;;23.90;99.90;;;;;;5053304;28;20203;-76
2021/05/29 09:48:59;;;;;;;6.07;4.22;;;23.90;99.90;;;;;;5057096;28;20238;-76
2021/05/29 09:51:27;;;;;;;7.85;5.28;;;23.70;99.90;;;;;;5055331;28;20226;-73
2021/05/29 09:53:55;;;;;;;7.15;4.75;;;23.80;99.90;;;;;;5070504;28;20202;-77
2021/05/29 09:56:28;;;;;;;6.13;4.43;;;23.60;99.90;;;;;;5068940;28;20696;-71
2021/05/29 09:59:00;;;;;;;6.85;4.75;;;23.40;99.90;;;;;;5059970;28;20206;-75
2021/05/29 10:01:43;;;;;;;4.93;4.40;;;23.10;99.90;;;;;;5072851;28;20237;-76
2021/05/29 10:04:11;;;;;;;7.57;5.97;;;23.10;99.90;;;;;;5073111;28;20202;-73
2021/05/29 10:06:38;;;;;;;8.27;4.50;;;23.00;99.90;;;;;;5072849;28;20209;-73
2021/05/29 10:09:06;;;;;;;5.00;4.50;;;22.90;99.90;;;;;;5072804;28;20214;-73
2021/05/29 10:11:35;;;;;;;5.43;4.18;;;22.40;99.90;;;;;;5072853;28;20211;-74
2021/05/29 10:14:02;;;;;;;9.80;5.55;;;22.80;99.90;;;;;;5072679;28;20222;-74
2021/05/29 10:16:30;;;;;;;11.15;5.22;;;22.20;99.90;;;;;;5072630;28;20206;-75
2021/05/29 10:19:01;;;;;;;5.50;5.00;;;22.00;99.90;;;;;;5067217;28;20214;-76
2021/05/29 10:21:30;;;;;;;8.05;4.55;;;23.00;99.90;;;;;;5059948;28;20337;-75
2021/05/29 10:23:58;;;;;;;7.93;4.72;;;22.90;99.90;;;;;;5060519;28;20284;-75
2021/05/29 10:26:27;;;;;;;10.00;5.82;;;22.80;99.90;;;;;;5062723;28;20236;-77
2021/05/29 10:28:54;;;;;;;7.28;4.55;;;22.60;99.90;;;;;;5056382;28;20298;-75
2021/05/29 10:31:22;;;;;;;9.95;5.28;;;22.70;99.90;;;;;;5051610;28;20215;-77
2021/05/29 10:33:48;;;;;;;7.45;4.80;;;22.90;99.90;;;;;;5052423;28;20219;-75
2021/05/29 10:36:43;;;;;;;7.10;5.18;;;23.10;99.90;;;;;;5052778;28;20648;-73
2021/05/29 10:39:12;;;;;;;5.97;5.07;;;23.30;99.90;;;;;;5052226;28;20293;-75
2021/05/29 10:41:50;;;;;;;5.90;5.00;;;23.40;99.90;;;;;;5052136;28;20234;-75
2021/05/29 10:44:38;;;;;;;8.95;5.47;;;23.50;99.90;;;;;;5063472;28;20205;-73
2021/05/29 10:47:09;;;;;;;12.35;5.70;;;23.40;99.90;;;;;;5056745;28;20698;-74
2021/05/29 10:49:57;;;;;;;5.53;4.63;;;23.20;99.90;;;;;;5067199;28;20710;-75
2021/05/29 10:52:51;;;;;;;8.35;6.07;;;23.00;99.90;;;;;;5060088;28;20248;-75
2021/05/29 10:55:25;;;;;;;7.13;4.95;;;22.80;99.90;;;;;;5034832;28;20210;-76
2021/05/29 10:58:00;;;;;;;6.93;5.18;;;22.70;99.90;;;;;;5071783;28;20580;-74
2021/05/29 11:00:54;;;;;;;8.88;5.00;;;22.50;99.90;;;;;;5071643;28;20232;-76
2021/05/29 11:03:25;;;;;;;5.97;5.15;;;22.60;99.90;;;;;;5051877;28;20253;-76
2021/05/29 11:05:56;;;;;;;5.20;3.88;;;22.40;99.90;;;;;;5051779;28;20215;-77
2021/05/29 11:09:02;;;;;;;5.38;4.38;;;22.50;99.90;;;;;;5051780;28;20667;-75
2021/05/29 11:11:54;;;;;;;5.80;4.20;;;22.60;99.90;;;;;;5054716;28;20312;-75
2021/05/29 11:14:23;;;;;;;5.85;4.20;;;22.80;99.90;;;;;;5062479;28;20259;-78
2021/05/29 11:17:12;;;;;;;5.40;4.72;;;22.80;99.90;;;;;;5066920;28;20210;-76
2021/05/29 11:19:43;;;;;;;5.43;4.93;;;22.70;99.90;;;;;;5068107;28;20206;-75
2021/05/29 11:22:11;;;;;;;5.47;4.45;;;22.50;99.90;;;;;;5062096;28;20210;-76
2021/05/29 11:24:40;;;;;;;8.13;4.60;;;22.40;99.90;;;;;;5065460;28;20236;-76
2021/05/29 11:27:09;;;;;;;6.53;5.10;;;22.30;99.90;;;;;;5064544;28;20206;-76
2021/05/29 11:29:53;;;;;;;4.78;4.32;;;22.30;99.90;;;;;;5069634;28;20206;-74
2021/05/29 11:32:50;;;;;;;6.28;5.25;;;22.40;99.90;;;;;;5070949;28;20209;-74
2021/05/29 11:35:24;;;;;;;6.78;5.40;;;22.30;99.90;;;;;;5062469;28;20210;-81
2021/05/29 11:38:07;;;;;;;7.88;4.82;;;22.10;99.90;;;;;;5065453;28;20216;-77
2021/05/29 11:40:55;;;;;;;6.80;4.57;;;22.00;99.90;;;;;;5071114;28;20233;-73
2021/05/29 11:43:34;;;;;;;6.78;4.93;;;21.90;99.90;;;;;;5067456;28;20245;-77
2021/05/29 11:46:03;;;;;;;6.13;5.03;;;21.90;99.90;;;;;;5067076;28;20203;-75
2021/05/29 11:48:31;;;;;;;6.85;3.78;;;21.80;99.90;;;;;;5070686;28;20272;-76
2021/05/29 11:51:13;;;;;;;8.13;5.07;;;21.60;99.90;;;;;;5064270;28;20573;-74
2021/05/29 11:53:50;;;;;;;5.18;4.13;;;21.50;99.90;;;;;;5064603;28;20260;-76
2021/05/29 11:56:19;;;;;;;4.47;3.67;;;21.30;99.90;;;;;;5064273;28;20217;-75
2021/05/29 11:58:49;;;;;;;8.63;4.30;;;21.20;99.90;;;;;;5064191;28;20217;-77
2021/05/29 12:01:17;;;;;;;5.40;4.13;;;20.90;99.90;;;;;;5055438;28;20714;-76
2021/05/29 12:03:46;;;;;;;4.38;3.83;;;20.70;99.90;;;;;;5055502;28;20253;-74
2021/05/29 12:06:31;;;;;;;8.18;4.30;;;20.60;99.90;;;;;;5065039;28;20619;-78
2021/05/29 12:08:59;;;;;;;4.32;3.65;;;20.40;99.90;;;;;;5055191;28;20214;-71
2021/05/29 12:11:27;;;;;;;7.30;3.70;;;20.20;99.90;;;;;;5055035;28;20203;-74
2021/05/29 12:14:00;;;;;;;5.43;4.00;;;20.00;99.90;;;;;;5055129;28;20581;-76
2021/05/29 12:16:29;;;;;;;6.80;4.32;;;19.70;99.90;;;;;;5055127;28;20211;-76
2021/05/29 12:18:55;;;;;;;6.90;5.55;;;19.40;99.90;;;;;;5054993;28;20203;-75
2021/05/29 12:21:22;;;;;;;6.85;5.22;;;19.20;99.90;;;;;;5054805;28;20231;-73
2021/05/29 12:23:57;;;;;;;4.07;3.35;;;19.00;99.90;;;;;;5054949;28;20675;-73
2021/05/29 12:26:25;;;;;;;5.22;3.42;;;18.70;99.90;;;;;;5054986;28;20202;-74
2021/05/29 12:28:52;;;;;;;6.10;4.07;;;18.60;99.90;;;;;;5055022;28;20214;-73
2021/05/29 12:31:22;;;;;;;5.10;3.97;;;18.50;99.90;;;;;;5054999;28;20203;-73
2021/05/29 12:34:02;;;;;;;6.15;3.90;;;18.40;99.90;;;;;;5054868;28;20209;-75
2021/05/29 12:36:29;;;;;;;12.02;4.07;;;18.40;99.90;;;;;;5054621;28;20664;-75
2021/05/29 12:39:00;;;;;;;10.07;4.28;;;18.40;99.90;;;;;;5054743;28;20203;-73
2021/05/29 12:41:36;;;;;;;8.80;4.85;;;18.50;99.90;;;;;;5054378;28;20241;-78
2021/05/29 12:44:05;;;;;;;7.32;5.32;;;18.60;99.90;;;;;;5054515;28;20209;-75
2021/05/29 12:46:33;;;;;;;7.50;4.65;;;18.50;99.90;;;;;;5054233;28;20675;-75
2021/05/29 12:49:05;;;;;;;11.18;5.22;;;18.50;99.90;;;;;;5054598;28;20203;-77
2021/05/29 12:51:43;;;;;;;6.53;4.13;;;18.50;99.90;;;;;;5054669;28;20286;-74
2021/05/29 12:54:10;;;;;;;6.20;4.43;;;18.50;99.90;;;;;;5056463;28;20236;-74
2021/05/29 12:56:36;;;;;;;6.50;4.80;;;18.60;99.90;;;;;;5071258;28;20297;-73
2021/05/29 12:59:05;;;;;;;5.97;5.05;;;19.00;99.90;;;;;;5065592;28;20213;-75
2021/05/29 13:01:41;;;;;;;7.07;4.82;;;19.30;99.90;;;;;;5070300;28;20226;-74
2021/05/29 13:09:50;;;;;;;5.65;3.83;;;19.60;99.90;;;;;;5071600;28;20221;-72